sensor_id;sensor_type;location;lat;lon;timestamp;temperature;humidity
43043;DHT22;28667;50.758;6.096;2023-02-11T00:00:16;4.90;99.90
43043;DHT22;28667;50.758;6.096;2023-02-11T00:02:42;4.80;99.90
43043;DHT22;28667;50.758;6.096;2023-02-11T00:05:08;4.80;99.90
43043;DHT22;28667;50.758;6.096;2023-02-11T00:07:34;4.80;99.90
43043;DHT22;28667;50.758;6.096;2023-02-11T00:10:00;4.70;99.90
43043;DHT22;28667;50.758;6.096;2023-02-11T00:12:30;4.60;99.90
43043;DHT22;28667;50.758;6.096;2023-02-11T00:14:56;4.60;99.90
43043;DHT22;28667;50.758;6.096;2023-02-11T00:17:22;4.60;99.90
43043;DHT22;28667;50.758;6.096;2023-02-11T00:19:51;4.60;99.90
43043;DHT22;28667;50.758;6.096;2023-02-11T00:22:17;4.50;99.90
43043;DHT22;28667;50.758;6.096;2023-02-11T00:24:44;4.50;99.90
43043;DHT22;28667;50.758;6.096;2023-02-11T00:27:10;4.50;99.90
43043;DHT22;28667;50.758;6.096;2023-02-11T00:29:36;4.50;99.90
43043;DHT22;28667;50.758;6.096;2023-02-11T00:32:02;4.40;99.90
43043;DHT22;28667;50.758;6.096;2023-02-11T00:34:30;4.40;99.90
43043;DHT22;28667;50.758;6.096;2023-02-11T00:36:56;4.40;99.90
43043;DHT22;28667;50.758;6.096;2023-02-11T00:39:22;4.30;99.90
43043;DHT22;28667;50.758;6.096;2023-02-11T00:41:47;4.30;99.90
43043;DHT22;28667;50.758;6.096;2023-02-11T00:44:13;4.30;99.90
43043;DHT22;28667;50.758;6.096;2023-02-11T00:46:39;4.30;99.90
43043;DHT22;28667;50.758;6.096;2023-02-11T00:49:05;4.30;99.90
43043;DHT22;28667;50.758;6.096;2023-02-11T00:51:30;4.30;99.90
43043;DHT22;28667;50.758;6.096;2023-02-11T00:53:56;4.20;99.90
43043;DHT22;28667;50.758;6.096;2023-02-11T00:56:22;4.20;99.90
43043;DHT22;28667;50.758;6.096;2023-02-11T00:58:48;4.20;99.90
43043;DHT22;28667;50.758;6.096;2023-02-11T01:01:16;4.20;99.90
43043;DHT22;28667;50.758;6.096;2023-02-11T01:03:41;4.20;99.90
43043;DHT22;28667;50.758;6.096;2023-02-11T01:06:08;4.20;99.90
43043;DHT22;28667;50.758;6.096;2023-02-11T01:08:37;4.20;99.90
43043;DHT22;28667;50.758;6.096;2023-02-11T01:11:06;4.10;99.90
43043;DHT22;28667;50.758;6.096;2023-02-11T01:13:35;4.10;99.90
43043;DHT22;28667;50.758;6.096;2023-02-11T01:16:02;4.10;99.90
43043;DHT22;28667;50.758;6.096;2023-02-11T01:18:28;4.10;99.90
43043;DHT22;28667;50.758;6.096;2023-02-11T01:20:54;4.10;99.90
43043;DHT22;28667;50.758;6.096;2023-02-11T01:23:20;4.10;99.90
43043;DHT22;28667;50.758;6.096;2023-02-11T01:25:46;4.10;99.90
43043;DHT22;28667;50.758;6.096;2023-02-11T01:28:23;4.10;99.90
43043;DHT22;28667;50.758;6.096;2023-02-11T01:30:51;4.10;99.90
43043;DHT22;28667;50.758;6.096;2023-02-11T01:33:17;4.00;99.90
43043;DHT22;28667;50.758;6.096;2023-02-11T01:35:43;4.00;99.90
43043;DHT22;28667;50.758;6.096;2023-02-11T01:38:19;4.00;99.90
43043;DHT22;28667;50.758;6.096;2023-02-11T01:40:47;4.00;99.90
43043;DHT22;28667;50.758;6.096;2023-02-11T01:43:12;4.00;99.90
43043;DHT22;28667;50.758;6.096;2023-02-11T01:48:35;4.10;99.90
43043;DHT22;28667;50.758;6.096;2023-02-11T01:51:16;4.10;99.90
43043;DHT22;28667;50.758;6.096;2023-02-11T01:53:43;4.20;99.90
43043;DHT22;28667;50.758;6.096;2023-02-11T01:56:30;4.20;99.90
43043;DHT22;28667;50.758;6.096;2023-02-11T01:59:19;4.20;99.90
43043;DHT22;28667;50.758;6.096;2023-02-11T02:01:52;4.20;99.90
43043;DHT22;28667;50.758;6.096;2023-02-11T02:04:22;4.30;99.90
43043;DHT22;28667;50.758;6.096;2023-02-11T02:06:58;4.30;99.90
43043;DHT22;28667;50.758;6.096;2023-02-11T02:09:27;4.30;99.90
43043;DHT22;28667;50.758;6.096;2023-02-11T02:11:55;4.30;99.90
43043;DHT22;28667;50.758;6.096;2023-02-11T02:14:21;4.30;99.90
43043;DHT22;28667;50.758;6.096;2023-02-11T02:16:47;4.30;99.90
43043;DHT22;28667;50.758;6.096;2023-02-11T02:25:04;4.40;99.90
43043;DHT22;28667;50.758;6.096;2023-02-11T02:33:48;4.40;99.90
43043;DHT22;28667;50.758;6.096;2023-02-11T02:38:33;4.40;99.90
43043;DHT22;28667;50.758;6.096;2023-02-11T02:41:05;4.40;99.90
43043;DHT22;28667;50.758;6.096;2023-02-11T02:43:33;4.50;99.90
43043;DHT22;28667;50.758;6.096;2023-02-11T02:46:15;4.50;99.90
43043;DHT22;28667;50.758;6.096;2023-02-11T02:48:42;4.50;99.90
43043;DHT22;28667;50.758;6.096;2023-02-11T03:00:13;4.50;99.90
43043;DHT22;28667;50.758;6.096;2023-02-11T03:05:59;4.50;99.90
43043;DHT22;28667;50.758;6.096;2023-02-11T03:11:08;4.60;99.90
43043;DHT22;28667;50.758;6.096;2023-02-11T03:13:37;4.50;99.90
43043;DHT22;28667;50.758;6.096;2023-02-11T03:16:08;4.50;99.90
43043;DHT22;28667;50.758;6.096;2023-02-11T03:18:38;4.50;99.90
43043;DHT22;28667;50.758;6.096;2023-02-11T03:21:07;4.50;99.90
43043;DHT22;28667;50.758;6.096;2023-02-11T03:23:57;4.40;99.90
43043;DHT22;28667;50.758;6.096;2023-02-11T03:37:09;4.20;99.90
43043;DHT22;28667;50.758;6.096;2023-02-11T03:42:23;4.20;99.90
43043;DHT22;28667;50.758;6.096;2023-02-11T03:44:57;4.20;99.90
43043;DHT22;28667;50.758;6.096;2023-02-11T03:47:25;4.30;99.90
43043;DHT22;28667;50.758;6.096;2023-02-11T03:49:54;4.30;99.90
43043;DHT22;28667;50.758;6.096;2023-02-11T03:52:21;4.30;99.90
43043;DHT22;28667;50.758;6.096;2023-02-11T03:54:50;4.30;99.90
43043;DHT22;28667;50.758;6.096;2023-02-11T03:57:18;4.30;99.90
43043;DHT22;28667;50.758;6.096;2023-02-11T03:59:57;4.30;99.90
43043;DHT22;28667;50.758;6.096;2023-02-11T04:02:27;4.30;99.90
43043;DHT22;28667;50.758;6.096;2023-02-11T04:04:53;4.30;99.90
43043;DHT22;28667;50.758;6.096;2023-02-11T04:07:19;4.30;99.90
43043;DHT22;28667;50.758;6.096;2023-02-11T04:09:45;4.30;99.90
43043;DHT22;28667;50.758;6.096;2023-02-11T04:12:11;4.30;99.90
43043;DHT22;28667;50.758;6.096;2023-02-11T04:14:37;4.30;99.90
43043;DHT22;28667;50.758;6.096;2023-02-11T04:17:03;4.30;99.90
43043;DHT22;28667;50.758;6.096;2023-02-11T04:19:28;4.30;99.90
43043;DHT22;28667;50.758;6.096;2023-02-11T04:21:54;4.30;99.90
43043;DHT22;28667;50.758;6.096;2023-02-11T04:24:20;4.30;99.90
43043;DHT22;28667;50.758;6.096;2023-02-11T04:26:46;4.40;99.90
43043;DHT22;28667;50.758;6.096;2023-02-11T04:29:11;4.30;99.90
43043;DHT22;28667;50.758;6.096;2023-02-11T04:31:37;4.30;99.90
43043;DHT22;28667;50.758;6.096;2023-02-11T04:34:03;4.40;99.90
43043;DHT22;28667;50.758;6.096;2023-02-11T04:36:29;4.30;99.90
43043;DHT22;28667;50.758;6.096;2023-02-11T04:38:54;4.30;99.90
43043;DHT22;28667;50.758;6.096;2023-02-11T04:41:20;4.30;99.90
43043;DHT22;28667;50.758;6.096;2023-02-11T04:43:46;4.30;99.90
43043;DHT22;28667;50.758;6.096;2023-02-11T04:46:11;4.30;99.90
43043;DHT22;28667;50.758;6.096;2023-02-11T04:48:37;4.30;99.90
43043;DHT22;28667;50.758;6.096;2023-02-11T04:51:03;4.30;99.90
43043;DHT22;28667;50.758;6.096;2023-02-11T04:53:29;4.30;99.90
43043;DHT22;28667;50.758;6.096;2023-02-11T04:55:59;4.30;99.90
43043;DHT22;28667;50.758;6.096;2023-02-11T04:58:27;4.30;99.90
43043;DHT22;28667;50.758;6.096;2023-02-11T05:00:53;4.30;99.90
43043;DHT22;28667;50.758;6.096;2023-02-11T05:03:19;4.30;99.90
43043;DHT22;28667;50.758;6.096;2023-02-11T05:05:44;4.30;99.90
43043;DHT22;28667;50.758;6.096;2023-02-11T05:08:11;4.30;99.90
43043;DHT22;28667;50.758;6.096;2023-02-11T05:10:37;4.30;99.90
43043;DHT22;28667;50.758;6.096;2023-02-11T05:13:03;4.30;99.90
43043;DHT22;28667;50.758;6.096;2023-02-11T05:15:29;4.20;99.90
43043;DHT22;28667;50.758;6.096;2023-02-11T05:17:55;4.20;99.90
43043;DHT22;28667;50.758;6.096;2023-02-11T05:20:21;4.20;99.90
43043;DHT22;28667;50.758;6.096;2023-02-11T05:22:46;4.20;99.90
43043;DHT22;28667;50.758;6.096;2023-02-11T05:25:13;4.20;99.90
43043;DHT22;28667;50.758;6.096;2023-02-11T05:27:38;4.20;99.90
43043;DHT22;28667;50.758;6.096;2023-02-11T05:30:05;4.20;99.90
43043;DHT22;28667;50.758;6.096;2023-02-11T05:32:31;4.20;99.90
43043;DHT22;28667;50.758;6.096;2023-02-11T05:34:56;4.20;99.90
43043;DHT22;28667;50.758;6.096;2023-02-11T05:37:22;4.20;99.90
43043;DHT22;28667;50.758;6.096;2023-02-11T05:39:48;4.10;99.90
43043;DHT22;28667;50.758;6.096;2023-02-11T05:42:14;4.10;99.90
43043;DHT22;28667;50.758;6.096;2023-02-11T05:44:39;4.20;99.90
43043;DHT22;28667;50.758;6.096;2023-02-11T05:47:06;4.20;99.90
43043;DHT22;28667;50.758;6.096;2023-02-11T05:49:34;4.20;99.90
43043;DHT22;28667;50.758;6.096;2023-02-11T05:52:00;4.20;99.90
43043;DHT22;28667;50.758;6.096;2023-02-11T05:54:25;4.20;99.90
43043;DHT22;28667;50.758;6.096;2023-02-11T05:56:51;4.20;99.90
43043;DHT22;28667;50.758;6.096;2023-02-11T05:59:17;4.20;99.90
43043;DHT22;28667;50.758;6.096;2023-02-11T06:01:43;4.10;99.90
43043;DHT22;28667;50.758;6.096;2023-02-11T06:04:08;4.20;99.90
43043;DHT22;28667;50.758;6.096;2023-02-11T06:06:34;4.20;99.90
43043;DHT22;28667;50.758;6.096;2023-02-11T06:09:00;4.20;99.90
43043;DHT22;28667;50.758;6.096;2023-02-11T06:11:26;4.10;99.90
43043;DHT22;28667;50.758;6.096;2023-02-11T06:13:52;4.20;99.90
43043;DHT22;28667;50.758;6.096;2023-02-11T06:16:17;4.20;99.90
43043;DHT22;28667;50.758;6.096;2023-02-11T06:18:43;4.20;99.90
43043;DHT22;28667;50.758;6.096;2023-02-11T06:21:09;4.20;99.90
43043;DHT22;28667;50.758;6.096;2023-02-11T06:23:35;4.20;99.90
43043;DHT22;28667;50.758;6.096;2023-02-11T06:26:03;4.20;99.90
43043;DHT22;28667;50.758;6.096;2023-02-11T06:28:29;4.20;99.90
43043;DHT22;28667;50.758;6.096;2023-02-11T06:31:04;4.20;99.90
43043;DHT22;28667;50.758;6.096;2023-02-11T06:33:31;4.20;99.90
43043;DHT22;28667;50.758;6.096;2023-02-11T06:35:57;4.20;99.90
43043;DHT22;28667;50.758;6.096;2023-02-11T06:38:22;4.20;99.90
43043;DHT22;28667;50.758;6.096;2023-02-11T06:40:48;4.20;99.90
43043;DHT22;28667;50.758;6.096;2023-02-11T06:43:15;4.20;99.90
43043;DHT22;28667;50.758;6.096;2023-02-11T06:45:41;4.20;99.90
43043;DHT22;28667;50.758;6.096;2023-02-11T06:48:07;4.20;99.90
43043;DHT22;28667;50.758;6.096;2023-02-11T06:50:33;4.20;99.90
43043;DHT22;28667;50.758;6.096;2023-02-11T06:52:59;4.20;99.90
43043;DHT22;28667;50.758;6.096;2023-02-11T06:55:25;4.20;99.90
43043;DHT22;28667;50.758;6.096;2023-02-11T06:57:51;4.20;99.90
43043;DHT22;28667;50.758;6.096;2023-02-11T07:00:17;4.20;99.90
43043;DHT22;28667;50.758;6.096;2023-02-11T07:02:43;4.20;99.90
43043;DHT22;28667;50.758;6.096;2023-02-11T07:05:09;4.20;99.90
43043;DHT22;28667;50.758;6.096;2023-02-11T07:07:35;4.20;99.90
43043;DHT22;28667;50.758;6.096;2023-02-11T07:10:01;4.20;99.90
43043;DHT22;28667;50.758;6.096;2023-02-11T07:12:29;4.20;99.90
43043;DHT22;28667;50.758;6.096;2023-02-11T07:14:55;4.20;99.90
43043;DHT22;28667;50.758;6.096;2023-02-11T07:17:21;4.20;99.90
43043;DHT22;28667;50.758;6.096;2023-02-11T07:19:47;4.20;99.90
43043;DHT22;28667;50.758;6.096;2023-02-11T07:22:13;4.20;99.90
43043;DHT22;28667;50.758;6.096;2023-02-11T07:24:39;4.20;99.90
43043;DHT22;28667;50.758;6.096;2023-02-11T07:27:04;4.20;99.90
43043;DHT22;28667;50.758;6.096;2023-02-11T07:29:30;4.20;99.90
43043;DHT22;28667;50.758;6.096;2023-02-11T07:31:56;4.20;99.90
43043;DHT22;28667;50.758;6.096;2023-02-11T07:34:22;4.20;99.90
43043;DHT22;28667;50.758;6.096;2023-02-11T07:36:48;4.20;99.90
43043;DHT22;28667;50.758;6.096;2023-02-11T07:39:14;4.30;99.90
43043;DHT22;28667;50.758;6.096;2023-02-11T07:41:40;4.30;99.90
43043;DHT22;28667;50.758;6.096;2023-02-11T07:44:06;4.30;99.90
43043;DHT22;28667;50.758;6.096;2023-02-11T07:46:31;4.30;99.90
43043;DHT22;28667;50.758;6.096;2023-02-11T07:48:59;4.30;99.90
43043;DHT22;28667;50.758;6.096;2023-02-11T07:51:29;4.40;99.90
43043;DHT22;28667;50.758;6.096;2023-02-11T07:53:57;4.40;99.90
43043;DHT22;28667;50.758;6.096;2023-02-11T07:56:27;4.40;99.90
43043;DHT22;28667;50.758;6.096;2023-02-11T07:58:54;4.40;99.90
43043;DHT22;28667;50.758;6.096;2023-02-11T08:01:25;4.50;99.90
43043;DHT22;28667;50.758;6.096;2023-02-11T08:03:57;4.50;99.90
43043;DHT22;28667;50.758;6.096;2023-02-11T08:06:25;4.50;99.90
43043;DHT22;28667;50.758;6.096;2023-02-11T08:08:52;4.50;99.90
43043;DHT22;28667;50.758;6.096;2023-02-11T08:11:24;4.60;99.90
43043;DHT22;28667;50.758;6.096;2023-02-11T08:13:50;4.50;99.90
43043;DHT22;28667;50.758;6.096;2023-02-11T08:16:31;4.50;99.90
43043;DHT22;28667;50.758;6.096;2023-02-11T08:19:00;4.60;99.90
43043;DHT22;28667;50.758;6.096;2023-02-11T08:21:26;4.60;99.90
43043;DHT22;28667;50.758;6.096;2023-02-11T08:23:54;4.60;99.90
43043;DHT22;28667;50.758;6.096;2023-02-11T08:26:22;4.60;99.90
43043;DHT22;28667;50.758;6.096;2023-02-11T08:28:50;4.60;99.90
43043;DHT22;28667;50.758;6.096;2023-02-11T08:31:18;4.60;99.90
43043;DHT22;28667;50.758;6.096;2023-02-11T08:33:45;4.60;99.90
43043;DHT22;28667;50.758;6.096;2023-02-11T08:36:13;4.60;99.90
43043;DHT22;28667;50.758;6.096;2023-02-11T08:38:39;4.60;99.90
43043;DHT22;28667;50.758;6.096;2023-02-11T08:41:05;4.60;99.90
43043;DHT22;28667;50.758;6.096;2023-02-11T08:43:31;4.60;99.90
43043;DHT22;28667;50.758;6.096;2023-02-11T08:45:58;4.60;99.90
43043;DHT22;28667;50.758;6.096;2023-02-11T08:48:23;4.60;99.90
43043;DHT22;28667;50.758;6.096;2023-02-11T08:50:49;4.60;99.90
43043;DHT22;28667;50.758;6.096;2023-02-11T08:53:15;4.70;99.90
43043;DHT22;28667;50.758;6.096;2023-02-11T08:55:47;4.70;99.90
43043;DHT22;28667;50.758;6.096;2023-02-11T08:58:13;4.70;99.90
43043;DHT22;28667;50.758;6.096;2023-02-11T09:00:39;4.70;99.90
43043;DHT22;28667;50.758;6.096;2023-02-11T09:03:05;4.80;99.90
43043;DHT22;28667;50.758;6.096;2023-02-11T09:05:33;4.80;99.90
43043;DHT22;28667;50.758;6.096;2023-02-11T09:07:59;4.90;99.90
43043;DHT22;28667;50.758;6.096;2023-02-11T09:10:24;4.90;99.90
43043;DHT22;28667;50.758;6.096;2023-02-11T09:12:50;4.90;99.90
43043;DHT22;28667;50.758;6.096;2023-02-11T09:15:16;4.90;99.90
43043;DHT22;28667;50.758;6.096;2023-02-11T09:17:42;4.90;99.90
43043;DHT22;28667;50.758;6.096;2023-02-11T09:20:08;4.90;99.90
43043;DHT22;28667;50.758;6.096;2023-02-11T09:22:34;4.90;99.90
43043;DHT22;28667;50.758;6.096;2023-02-11T09:24:59;5.00;99.90
43043;DHT22;28667;50.758;6.096;2023-02-11T09:27:25;4.90;99.90
43043;DHT22;28667;50.758;6.096;2023-02-11T09:29:51;4.90;99.90
43043;DHT22;28667;50.758;6.096;2023-02-11T09:32:16;4.90;99.90
43043;DHT22;28667;50.758;6.096;2023-02-11T09:34:42;4.90;99.90
43043;DHT22;28667;50.758;6.096;2023-02-11T09:37:08;4.90;99.90
43043;DHT22;28667;50.758;6.096;2023-02-11T09:39:34;4.90;99.90
43043;DHT22;28667;50.758;6.096;2023-02-11T09:44:50;4.90;99.90
43043;DHT22;28667;50.758;6.096;2023-02-11T09:50:06;5.00;99.90
43043;DHT22;28667;50.758;6.096;2023-02-11T09:55:33;5.00;99.90
43043;DHT22;28667;50.758;6.096;2023-02-11T09:58:06;5.00;99.90
43043;DHT22;28667;50.758;6.096;2023-02-11T10:00:38;5.00;99.90
43043;DHT22;28667;50.758;6.096;2023-02-11T10:19:46;5.60;99.90
43043;DHT22;28667;50.758;6.096;2023-02-11T10:22:21;5.60;99.90
43043;DHT22;28667;50.758;6.096;2023-02-11T10:24:57;5.70;99.90
43043;DHT22;28667;50.758;6.096;2023-02-11T10:27:31;5.70;99.90
43043;DHT22;28667;50.758;6.096;2023-02-11T10:30:06;5.80;99.90
43043;DHT22;28667;50.758;6.096;2023-02-11T10:33:02;5.80;99.90
43043;DHT22;28667;50.758;6.096;2023-02-11T10:35:28;5.80;99.90
43043;DHT22;28667;50.758;6.096;2023-02-11T10:37:54;5.80;99.90
43043;DHT22;28667;50.758;6.096;2023-02-11T10:40:24;5.80;99.90
43043;DHT22;28667;50.758;6.096;2023-02-11T10:42:52;5.70;99.90
43043;DHT22;28667;50.758;6.096;2023-02-11T10:45:45;5.70;99.90
43043;DHT22;28667;50.758;6.096;2023-02-11T10:53:36;5.80;99.90
43043;DHT22;28667;50.758;6.096;2023-02-11T10:56:02;5.70;99.90
43043;DHT22;28667;50.758;6.096;2023-02-11T10:58:44;5.80;99.90
43043;DHT22;28667;50.758;6.096;2023-02-11T11:01:11;5.80;99.90
43043;DHT22;28667;50.758;6.096;2023-02-11T11:03:49;5.80;99.90
43043;DHT22;28667;50.758;6.096;2023-02-11T11:06:16;5.80;99.90
43043;DHT22;28667;50.758;6.096;2023-02-11T11:08:53;5.80;99.90
43043;DHT22;28667;50.758;6.096;2023-02-11T11:11:23;5.80;99.90
43043;DHT22;28667;50.758;6.096;2023-02-11T11:16:23;5.70;99.90
43043;DHT22;28667;50.758;6.096;2023-02-11T11:18:52;5.70;99.90
43043;DHT22;28667;50.758;6.096;2023-02-11T11:21:35;5.70;99.90
43043;DHT22;28667;50.758;6.096;2023-02-11T11:24:16;5.80;99.90
43043;DHT22;28667;50.758;6.096;2023-02-11T11:26:46;5.80;99.90
43043;DHT22;28667;50.758;6.096;2023-02-11T11:29:35;5.80;99.90
43043;DHT22;28667;50.758;6.096;2023-02-11T11:32:05;5.80;99.90
43043;DHT22;28667;50.758;6.096;2023-02-11T11:34:39;5.80;99.90
43043;DHT22;28667;50.758;6.096;2023-02-11T11:37:18;5.80;99.90
43043;DHT22;28667;50.758;6.096;2023-02-11T11:42:39;5.80;99.90
43043;DHT22;28667;50.758;6.096;2023-02-11T11:50:35;5.80;99.90
43043;DHT22;28667;50.758;6.096;2023-02-11T11:53:36;5.80;99.90
43043;DHT22;28667;50.758;6.096;2023-02-11T11:56:37;5.80;99.90
43043;DHT22;28667;50.758;6.096;2023-02-11T11:59:10;5.80;99.90
43043;DHT22;28667;50.758;6.096;2023-02-11T12:25:40;5.90;99.90
43043;DHT22;28667;50.758;6.096;2023-02-11T12:33:51;5.90;99.90
43043;DHT22;28667;50.758;6.096;2023-02-11T12:39:32;5.90;99.90
43043;DHT22;28667;50.758;6.096;2023-02-11T12:50:53;6.10;99.90
43043;DHT22;28667;50.758;6.096;2023-02-11T12:55:59;6.10;99.90
43043;DHT22;28667;50.758;6.096;2023-02-11T12:58:30;6.10;99.90
43043;DHT22;28667;50.758;6.096;2023-02-11T13:01:18;6.10;99.90
43043;DHT22;28667;50.758;6.096;2023-02-11T13:03:54;6.10;99.90
43043;DHT22;28667;50.758;6.096;2023-02-11T13:06:39;6.10;99.90
43043;DHT22;28667;50.758;6.096;2023-02-11T13:09:25;6.10;99.90
43043;DHT22;28667;50.758;6.096;2023-02-11T13:11:54;6.10;99.90
43043;DHT22;28667;50.758;6.096;2023-02-11T13:14:35;6.20;99.90
43043;DHT22;28667;50.758;6.096;2023-02-11T13:17:16;6.10;99.90
43043;DHT22;28667;50.758;6.096;2023-02-11T13:19:53;6.10;99.90
43043;DHT22;28667;50.758;6.096;2023-02-11T13:22:27;6.10;99.90
43043;DHT22;28667;50.758;6.096;2023-02-11T13:25:21;6.20;99.90
43043;DHT22;28667;50.758;6.096;2023-02-11T13:27:58;6.20;99.90
43043;DHT22;28667;50.758;6.096;2023-02-11T13:30:35;6.20;99.90
43043;DHT22;28667;50.758;6.096;2023-02-11T13:33:15;6.20;99.90
43043;DHT22;28667;50.758;6.096;2023-02-11T13:35:47;6.20;99.90
43043;DHT22;28667;50.758;6.096;2023-02-11T13:40:43;6.20;99.90
43043;DHT22;28667;50.758;6.096;2023-02-11T13:43:21;6.20;99.90
43043;DHT22;28667;50.758;6.096;2023-02-11T13:45:49;6.20;99.90
43043;DHT22;28667;50.758;6.096;2023-02-11T13:48:23;6.20;99.90
43043;DHT22;28667;50.758;6.096;2023-02-11T13:50:55;6.20;99.90
43043;DHT22;28667;50.758;6.096;2023-02-11T13:53:22;6.30;99.90
43043;DHT22;28667;50.758;6.096;2023-02-11T13:56:04;6.30;99.90
43043;DHT22;28667;50.758;6.096;2023-02-11T13:58:35;6.30;99.90
43043;DHT22;28667;50.758;6.096;2023-02-11T14:01:05;6.30;99.90
43043;DHT22;28667;50.758;6.096;2023-02-11T14:03:36;6.40;99.90
43043;DHT22;28667;50.758;6.096;2023-02-11T14:06:27;6.40;99.90
43043;DHT22;28667;50.758;6.096;2023-02-11T14:09:35;6.40;99.90
43043;DHT22;28667;50.758;6.096;2023-02-11T14:12:22;6.40;99.90
43043;DHT22;28667;50.758;6.096;2023-02-11T14:17:33;6.40;99.90
43043;DHT22;28667;50.758;6.096;2023-02-11T14:20:01;6.50;99.90
43043;DHT22;28667;50.758;6.096;2023-02-11T14:22:49;6.50;99.90
43043;DHT22;28667;50.758;6.096;2023-02-11T14:25:21;6.50;99.90
43043;DHT22;28667;50.758;6.096;2023-02-11T14:27:56;6.50;99.90
43043;DHT22;28667;50.758;6.096;2023-02-11T14:30:54;6.60;99.90
43043;DHT22;28667;50.758;6.096;2023-02-11T14:41:18;6.60;99.90
43043;DHT22;28667;50.758;6.096;2023-02-11T14:43:47;6.70;99.90
43043;DHT22;28667;50.758;6.096;2023-02-11T14:46:17;6.70;99.90
43043;DHT22;28667;50.758;6.096;2023-02-11T14:48:46;6.70;99.90
43043;DHT22;28667;50.758;6.096;2023-02-11T14:51:19;6.70;99.90
43043;DHT22;28667;50.758;6.096;2023-02-11T14:53:54;6.70;99.90
43043;DHT22;28667;50.758;6.096;2023-02-11T14:56:26;6.70;99.90
43043;DHT22;28667;50.758;6.096;2023-02-11T14:58:56;6.60;99.90
43043;DHT22;28667;50.758;6.096;2023-02-11T15:01:30;6.70;99.90
43043;DHT22;28667;50.758;6.096;2023-02-11T15:04:05;6.70;99.90
43043;DHT22;28667;50.758;6.096;2023-02-11T15:06:33;6.60;99.90
43043;DHT22;28667;50.758;6.096;2023-02-11T15:09:22;6.60;99.90
43043;DHT22;28667;50.758;6.096;2023-02-11T15:11:53;6.60;99.90
43043;DHT22;28667;50.758;6.096;2023-02-11T15:14:30;6.60;99.90
43043;DHT22;28667;50.758;6.096;2023-02-11T15:17:03;6.60;99.90
43043;DHT22;28667;50.758;6.096;2023-02-11T15:22:14;6.60;99.90
43043;DHT22;28667;50.758;6.096;2023-02-11T15:24:42;6.60;99.90
43043;DHT22;28667;50.758;6.096;2023-02-11T15:29:43;6.60;99.90
43043;DHT22;28667;50.758;6.096;2023-02-11T15:34:42;6.60;99.90
43043;DHT22;28667;50.758;6.096;2023-02-11T15:37:13;6.60;99.90
43043;DHT22;28667;50.758;6.096;2023-02-11T15:39:40;6.60;99.90
43043;DHT22;28667;50.758;6.096;2023-02-11T15:44:44;6.70;99.90
43043;DHT22;28667;50.758;6.096;2023-02-11T15:47:11;6.70;99.90
43043;DHT22;28667;50.758;6.096;2023-02-11T15:49:45;6.60;99.90
43043;DHT22;28667;50.758;6.096;2023-02-11T15:52:13;6.70;99.90
43043;DHT22;28667;50.758;6.096;2023-02-11T15:54:39;6.70;99.90
43043;DHT22;28667;50.758;6.096;2023-02-11T15:57:10;6.70;99.90
43043;DHT22;28667;50.758;6.096;2023-02-11T15:59:45;6.60;99.90
43043;DHT22;28667;50.758;6.096;2023-02-11T16:05:00;6.60;99.90
43043;DHT22;28667;50.758;6.096;2023-02-11T16:07:46;6.60;99.90
43043;DHT22;28667;50.758;6.096;2023-02-11T16:10:29;6.50;99.90
43043;DHT22;28667;50.758;6.096;2023-02-11T16:13:03;6.60;99.90
43043;DHT22;28667;50.758;6.096;2023-02-11T16:15:46;6.60;99.90
43043;DHT22;28667;50.758;6.096;2023-02-11T16:18:42;6.50;99.90
43043;DHT22;28667;50.758;6.096;2023-02-11T16:21:17;6.50;99.90
43043;DHT22;28667;50.758;6.096;2023-02-11T16:23:54;6.50;99.90
43043;DHT22;28667;50.758;6.096;2023-02-11T16:26:35;6.50;99.90
43043;DHT22;28667;50.758;6.096;2023-02-11T16:31:35;6.40;99.90
43043;DHT22;28667;50.758;6.096;2023-02-11T16:34:04;6.40;99.90
43043;DHT22;28667;50.758;6.096;2023-02-11T16:36:30;6.40;99.90
43043;DHT22;28667;50.758;6.096;2023-02-11T16:38:56;6.40;99.90
43043;DHT22;28667;50.758;6.096;2023-02-11T16:41:21;6.40;99.90
43043;DHT22;28667;50.758;6.096;2023-02-11T16:43:47;6.40;99.90
43043;DHT22;28667;50.758;6.096;2023-02-11T16:46:15;6.40;99.90
43043;DHT22;28667;50.758;6.096;2023-02-11T16:48:41;6.40;99.90
43043;DHT22;28667;50.758;6.096;2023-02-11T16:51:09;6.30;99.90
43043;DHT22;28667;50.758;6.096;2023-02-11T16:53:36;6.30;99.90
43043;DHT22;28667;50.758;6.096;2023-02-11T16:56:02;6.30;99.90
43043;DHT22;28667;50.758;6.096;2023-02-11T16:58:27;6.30;99.90
43043;DHT22;28667;50.758;6.096;2023-02-11T17:00:53;6.30;99.90
43043;DHT22;28667;50.758;6.096;2023-02-11T17:03:24;6.30;99.90
43043;DHT22;28667;50.758;6.096;2023-02-11T17:05:51;6.30;99.90
43043;DHT22;28667;50.758;6.096;2023-02-11T17:08:17;6.30;99.90
43043;DHT22;28667;50.758;6.096;2023-02-11T17:10:43;6.30;99.90
43043;DHT22;28667;50.758;6.096;2023-02-11T17:13:11;6.30;99.90
43043;DHT22;28667;50.758;6.096;2023-02-11T17:15:37;6.30;99.90
43043;DHT22;28667;50.758;6.096;2023-02-11T17:18:03;6.30;99.90
43043;DHT22;28667;50.758;6.096;2023-02-11T17:20:29;6.30;99.90
43043;DHT22;28667;50.758;6.096;2023-02-11T17:22:56;6.30;99.90
43043;DHT22;28667;50.758;6.096;2023-02-11T17:25:22;6.30;99.90
43043;DHT22;28667;50.758;6.096;2023-02-11T17:27:49;6.40;99.90
43043;DHT22;28667;50.758;6.096;2023-02-11T17:30:15;6.30;99.90
43043;DHT22;28667;50.758;6.096;2023-02-11T17:32:40;6.40;99.90
43043;DHT22;28667;50.758;6.096;2023-02-11T17:35:06;6.30;99.90
43043;DHT22;28667;50.758;6.096;2023-02-11T17:37:32;6.30;99.90
43043;DHT22;28667;50.758;6.096;2023-02-11T17:39:58;6.30;99.90
43043;DHT22;28667;50.758;6.096;2023-02-11T17:42:24;6.30;99.90
43043;DHT22;28667;50.758;6.096;2023-02-11T17:44:49;6.30;99.90
43043;DHT22;28667;50.758;6.096;2023-02-11T17:47:15;6.30;99.90
43043;DHT22;28667;50.758;6.096;2023-02-11T17:49:42;6.30;99.90
43043;DHT22;28667;50.758;6.096;2023-02-11T17:52:08;6.30;99.90
43043;DHT22;28667;50.758;6.096;2023-02-11T17:54:33;6.30;99.90
43043;DHT22;28667;50.758;6.096;2023-02-11T17:56:59;6.30;99.90
43043;DHT22;28667;50.758;6.096;2023-02-11T17:59:25;6.30;99.90
43043;DHT22;28667;50.758;6.096;2023-02-11T18:01:52;6.30;99.90
43043;DHT22;28667;50.758;6.096;2023-02-11T18:04:21;6.30;99.90
43043;DHT22;28667;50.758;6.096;2023-02-11T18:06:47;6.30;99.90
43043;DHT22;28667;50.758;6.096;2023-02-11T18:09:13;6.30;99.90
43043;DHT22;28667;50.758;6.096;2023-02-11T18:11:39;6.30;99.90
43043;DHT22;28667;50.758;6.096;2023-02-11T18:14:05;6.40;99.90
43043;DHT22;28667;50.758;6.096;2023-02-11T18:16:33;6.30;99.90
43043;DHT22;28667;50.758;6.096;2023-02-11T18:19:02;6.40;99.90
43043;DHT22;28667;50.758;6.096;2023-02-11T18:21:28;6.30;99.90
43043;DHT22;28667;50.758;6.096;2023-02-11T18:23:54;6.30;99.90
43043;DHT22;28667;50.758;6.096;2023-02-11T18:26:21;6.40;99.90
43043;DHT22;28667;50.758;6.096;2023-02-11T18:28:50;6.30;99.90
43043;DHT22;28667;50.758;6.096;2023-02-11T18:31:17;6.30;99.90
43043;DHT22;28667;50.758;6.096;2023-02-11T18:33:47;6.30;99.90
43043;DHT22;28667;50.758;6.096;2023-02-11T18:36:15;6.30;99.90
43043;DHT22;28667;50.758;6.096;2023-02-11T18:38:41;6.40;99.90